createdAt,value
2022-10-16T00:03:43.961Z,994.8
2022-10-16T00:08:43.420Z,994.8
2022-10-16T00:13:44.453Z,994.8
2022-10-16T00:18:43.500Z,994.7
2022-10-16T00:23:43.704Z,994.9
2022-10-16T00:28:46.130Z,994.8
2022-10-16T00:33:44.047Z,994.9
2022-10-16T00:38:45.886Z,994.7
2022-10-16T00:43:47.410Z,994.8
2022-10-16T00:48:50.173Z,994.8
2022-10-16T00:53:46.550Z,994.8
2022-10-16T00:58:46.869Z,994.9
2022-10-16T01:03:46.901Z,995
2022-10-16T01:09:00.874Z,995.1
2022-10-16T01:13:53.272Z,995.1
2022-10-16T01:18:57.269Z,995.2
2022-10-16T01:23:56.648Z,995.1
2022-10-16T01:28:55.285Z,995
2022-10-16T01:33:57.467Z,995
2022-10-16T01:38:51.544Z,994.9
2022-10-16T01:43:52.084Z,995.1
2022-10-16T01:48:50.214Z,995.2
2022-10-16T01:53:53.107Z,995.2
2022-10-16T01:58:53.473Z,995.1
2022-10-16T02:03:54.160Z,995.1
2022-10-16T02:08:49.279Z,995.2
2022-10-16T02:13:55.986Z,995.3
2022-10-16T02:18:49.060Z,995.2
2022-10-16T02:23:54.298Z,995.3
2022-10-16T02:28:55.191Z,995.2
2022-10-16T02:33:52.899Z,995.4
2022-10-16T02:38:51.794Z,995.4
2022-10-16T02:43:51.646Z,995.3
2022-10-16T02:48:51.377Z,995.3
2022-10-16T02:53:51.064Z,995.4
2022-10-16T02:58:51.592Z,995.4
2022-10-16T03:03:51.414Z,995.5
2022-10-16T03:08:50.958Z,995.4
2022-10-16T03:13:51.656Z,995.3
2022-10-16T03:18:52.501Z,995.4
2022-10-16T03:23:52.220Z,995.5
2022-10-16T03:28:52.035Z,995.5
2022-10-16T03:33:52.751Z,995.6
2022-10-16T03:38:53.341Z,995.6
2022-10-16T03:43:52.984Z,995.6
2022-10-16T03:48:53.610Z,995.6
2022-10-16T03:53:53.331Z,995.7
2022-10-16T03:58:53.045Z,995.7
2022-10-16T04:03:53.808Z,995.6
2022-10-16T04:08:54.416Z,995.7
2022-10-16T04:13:55.582Z,995.6
2022-10-16T04:18:54.651Z,995.6
2022-10-16T04:23:54.646Z,995.8
2022-10-16T04:28:54.495Z,995.9
2022-10-16T04:33:54.323Z,995.9
2022-10-16T04:38:54.159Z,995.9
2022-10-16T04:43:54.168Z,995.8
2022-10-16T04:48:54.889Z,995.9
2022-10-16T04:53:55.777Z,995.8
2022-10-16T04:58:56.578Z,996
2022-10-16T05:03:56.456Z,996
2022-10-16T05:08:56.254Z,996
2022-10-16T05:13:56.115Z,996.1
2022-10-16T05:19:00.023Z,996
2022-10-16T05:23:55.853Z,996
2022-10-16T05:28:56.742Z,996
2022-10-16T05:33:59.132Z,996
2022-10-16T05:38:59.134Z,996
2022-10-16T05:43:59.682Z,996.1
2022-10-16T05:49:00.166Z,996.1
2022-10-16T05:54:00.055Z,996.1
2022-10-16T05:59:00.664Z,996.3
2022-10-16T06:04:02.080Z,996.3
2022-10-16T06:09:03.052Z,996.4
2022-10-16T06:14:02.587Z,996.3
2022-10-16T06:19:03.685Z,996.4
2022-10-16T06:24:02.605Z,996.5
2022-10-16T06:29:02.472Z,996.5
2022-10-16T06:34:02.382Z,996.6
2022-10-16T06:39:02.685Z,996.5
2022-10-16T06:44:06.633Z,996.5
2022-10-16T06:49:02.341Z,996.6
2022-10-16T06:54:03.830Z,996.7
2022-10-16T06:59:02.729Z,996.7
2022-10-16T07:04:02.976Z,996.7
2022-10-16T07:09:05.154Z,996.8
2022-10-16T07:14:03.211Z,996.9
2022-10-16T07:19:03.242Z,996.9
2022-10-16T07:24:05.602Z,997.1
2022-10-16T07:29:03.735Z,997.3
2022-10-16T07:34:03.560Z,997.3
2022-10-16T07:39:03.301Z,997.3
2022-10-16T07:44:04.084Z,997.4
2022-10-16T07:49:03.322Z,997.4
2022-10-16T07:54:02.987Z,997.5
2022-10-16T07:59:02.889Z,997.6
2022-10-16T08:09:04.883Z,997.8
2022-10-16T08:14:04.822Z,997.8
2022-10-16T08:19:05.620Z,997.9
2022-10-16T08:24:05.416Z,998
2022-10-16T08:29:05.423Z,998.1
2022-10-16T08:34:05.080Z,998.1
2022-10-16T08:39:05.836Z,998.1
2022-10-16T08:44:30.797Z,998.3
